createdAt,value
2022-12-18T00:00:28.200Z,0.00
2022-12-18T00:01:28.122Z,0.00
2022-12-18T00:02:28.114Z,0.00
2022-12-18T00:03:28.236Z,0.00
2022-12-18T00:04:28.118Z,0.00
2022-12-18T00:05:28.061Z,0.00
2022-12-18T00:06:28.022Z,0.00
2022-12-18T00:07:28.040Z,0.00
2022-12-18T00:08:27.968Z,0.00
2022-12-18T00:09:31.598Z,0.00
2022-12-18T00:10:28.971Z,0.00
2022-12-18T00:11:27.989Z,0.00
2022-12-18T00:12:30.043Z,0.00
2022-12-18T00:13:27.950Z,0.00
2022-12-18T00:14:27.921Z,0.00
2022-12-18T00:15:27.931Z,0.00
2022-12-18T00:16:28.144Z,0.00
2022-12-18T00:17:27.919Z,0.00
2022-12-18T00:18:27.885Z,0.00
2022-12-18T00:19:27.893Z,0.00
2022-12-18T00:20:27.830Z,0.00
2022-12-18T00:21:27.836Z,0.00
2022-12-18T00:22:27.822Z,0.00
2022-12-18T00:23:27.815Z,0.00
2022-12-18T00:24:27.833Z,0.00
2022-12-18T00:25:28.540Z,0.00
2022-12-18T00:26:27.750Z,0.00
2022-12-18T00:27:27.765Z,0.00
2022-12-18T00:28:27.753Z,0.00
2022-12-18T00:29:27.775Z,0.00
2022-12-18T00:30:27.727Z,0.00
2022-12-18T00:31:27.781Z,0.00
2022-12-18T00:32:27.679Z,0.00
2022-12-18T00:33:27.688Z,0.00
2022-12-18T00:34:27.681Z,0.00
2022-12-18T00:35:27.691Z,0.00
2022-12-18T00:36:27.685Z,0.00
2022-12-18T00:37:27.673Z,0.00
2022-12-18T00:38:27.620Z,0.00
2022-12-18T00:39:27.665Z,0.00
2022-12-18T00:40:27.578Z,0.00
2022-12-18T00:41:27.604Z,0.00
2022-12-18T00:42:27.696Z,0.00
2022-12-18T00:43:27.577Z,0.00
2022-12-18T00:44:27.567Z,0.00
2022-12-18T00:45:27.584Z,0.00
2022-12-18T00:46:27.565Z,0.00
2022-12-18T00:47:27.494Z,0.00
2022-12-18T00:48:27.653Z,0.00
2022-12-18T00:49:27.495Z,0.00
2022-12-18T00:50:27.488Z,0.00
2022-12-18T00:51:27.483Z,0.00
2022-12-18T00:52:27.467Z,0.00
2022-12-18T00:53:27.419Z,0.00
2022-12-18T00:54:27.486Z,0.00
2022-12-18T00:55:27.397Z,0.00
2022-12-18T00:56:27.437Z,0.00
2022-12-18T00:57:27.397Z,0.00
2022-12-18T00:58:27.389Z,0.00
2022-12-18T00:59:27.340Z,0.00
2022-12-18T01:00:27.428Z,0.00
2022-12-18T01:01:27.390Z,0.00
2022-12-18T01:02:27.472Z,0.00
2022-12-18T01:03:27.327Z,0.00
2022-12-18T01:04:27.311Z,0.00
2022-12-18T01:05:27.272Z,0.00
2022-12-18T01:06:27.435Z,0.00
2022-12-18T01:07:27.252Z,0.00
2022-12-18T01:08:27.291Z,0.00
2022-12-18T01:09:27.248Z,0.00
2022-12-18T01:10:27.243Z,0.00
2022-12-18T01:11:27.228Z,0.00
2022-12-18T01:12:27.252Z,0.00
2022-12-18T01:13:28.130Z,0.00
2022-12-18T01:14:27.218Z,0.00
2022-12-18T01:15:27.177Z,0.00
2022-12-18T01:16:27.195Z,0.00
2022-12-18T01:17:27.122Z,0.00
2022-12-18T01:18:27.198Z,0.00
2022-12-18T01:19:27.103Z,0.00
2022-12-18T01:20:27.147Z,0.00
2022-12-18T01:21:27.110Z,0.00
2022-12-18T01:22:27.093Z,0.00
2022-12-18T01:23:27.090Z,0.00
2022-12-18T01:24:27.184Z,0.00
2022-12-18T01:25:27.023Z,0.00
2022-12-18T01:26:27.072Z,0.00
2022-12-18T01:27:27.002Z,0.00
2022-12-18T01:28:27.041Z,0.00
2022-12-18T01:29:27.008Z,0.00
2022-12-18T01:30:27.015Z,0.00
2022-12-18T01:31:27.046Z,0.00
2022-12-18T01:32:26.999Z,0.00
2022-12-18T01:33:26.960Z,0.00
2022-12-18T01:34:26.944Z,0.00
2022-12-18T01:35:26.933Z,0.00
2022-12-18T01:36:26.946Z,0.00
2022-12-18T01:37:26.885Z,0.00
2022-12-18T01:38:26.921Z,0.00
2022-12-18T01:39:26.855Z,0.00
2022-12-18T01:40:26.900Z,0.00
2022-12-18T01:41:26.860Z,0.00
2022-12-18T01:42:26.887Z,0.00
2022-12-18T01:43:26.835Z,0.00
2022-12-18T01:44:26.825Z,0.00
2022-12-18T01:45:26.825Z,0.00
2022-12-18T01:46:26.822Z,0.00
2022-12-18T01:47:26.757Z,0.00
2022-12-18T01:48:26.840Z,0.00
2022-12-18T01:49:26.762Z,0.00
2022-12-18T01:50:26.746Z,0.00
2022-12-18T01:51:26.732Z,0.00
2022-12-18T01:52:26.726Z,0.00
2022-12-18T01:53:26.677Z,0.00
2022-12-18T01:54:26.761Z,0.00
2022-12-18T01:55:26.658Z,0.00
2022-12-18T01:56:26.705Z,0.00
2022-12-18T01:57:26.662Z,0.00
2022-12-18T01:58:26.647Z,0.00
2022-12-18T01:59:26.633Z,0.00
2022-12-18T02:00:26.649Z,0.00
2022-12-18T02:01:26.731Z,0.00
2022-12-18T02:02:26.794Z,0.00
2022-12-18T02:03:26.620Z,0.00
2022-12-18T02:04:26.579Z,0.00
2022-12-18T02:05:26.539Z,0.00
2022-12-18T02:06:26.604Z,0.00
2022-12-18T02:07:26.508Z,0.00
2022-12-18T02:08:26.553Z,0.00
2022-12-18T02:09:26.516Z,0.00
2022-12-18T02:10:26.498Z,0.00
2022-12-18T02:11:26.485Z,0.00
2022-12-18T02:12:26.589Z,0.00
2022-12-18T02:13:26.438Z,0.00
2022-12-18T02:14:26.478Z,0.00
2022-12-18T02:15:26.409Z,0.00
2022-12-18T02:16:26.475Z,0.00
2022-12-18T02:17:26.415Z,0.00
2022-12-18T02:18:26.444Z,0.00
2022-12-18T02:19:26.360Z,0.00
2022-12-18T02:20:26.406Z,0.00
2022-12-18T02:21:26.366Z,0.00
2022-12-18T02:22:26.360Z,0.00
2022-12-18T02:23:26.341Z,0.00
2022-12-18T02:24:26.445Z,0.00
2022-12-18T02:25:26.290Z,0.00
2022-12-18T02:26:26.328Z,0.00
2022-12-18T02:27:26.261Z,0.00
2022-12-18T02:28:26.313Z,0.00
2022-12-18T02:29:26.268Z,0.00
2022-12-18T02:30:26.394Z,0.00
2022-12-18T02:31:26.245Z,0.00
2022-12-18T02:32:26.231Z,0.00
2022-12-18T02:33:26.191Z,0.00
2022-12-18T02:34:26.237Z,0.00
2022-12-18T02:35:26.202Z,0.00
2022-12-18T02:36:26.222Z,0.00
2022-12-18T02:37:26.142Z,0.00
2022-12-18T02:38:26.189Z,0.00
2022-12-18T02:39:26.112Z,0.00
2022-12-18T02:40:26.159Z,0.00
2022-12-18T02:41:26.119Z,0.00
2022-12-18T02:42:26.222Z,0.00
2022-12-18T02:43:26.098Z,0.00
2022-12-18T02:44:26.083Z,0.00
2022-12-18T02:45:26.042Z,0.00
2022-12-18T02:46:26.087Z,0.00
2022-12-18T02:47:26.014Z,0.00
2022-12-18T02:48:26.088Z,0.00
2022-12-18T02:49:26.021Z,0.00
2022-12-18T02:50:26.012Z,0.00
2022-12-18T02:51:25.998Z,0.00
2022-12-18T02:52:25.985Z,0.00
2022-12-18T02:53:25.953Z,0.00
2022-12-18T02:54:26.099Z,0.00
2022-12-18T02:55:25.924Z,0.00
2022-12-18T02:56:25.960Z,0.00
2022-12-18T02:57:25.920Z,0.00
2022-12-18T02:58:25.911Z,0.00
2022-12-18T02:59:25.900Z,0.00
2022-12-18T03:00:25.913Z,0.00
2022-12-18T03:01:25.921Z,0.00
2022-12-18T03:02:26.017Z,0.00
2022-12-18T03:03:25.893Z,0.00
2022-12-18T03:04:25.862Z,0.00
2022-12-18T03:05:25.821Z,0.00
2022-12-18T03:06:25.917Z,0.00
2022-12-18T03:07:25.779Z,0.00
2022-12-18T03:08:25.818Z,0.00
2022-12-18T03:09:25.772Z,0.00
2022-12-18T03:10:25.766Z,0.00
2022-12-18T03:11:25.751Z,0.00
2022-12-18T03:12:25.775Z,0.00
2022-12-18T03:13:25.695Z,0.00
2022-12-18T03:14:25.743Z,0.00
2022-12-18T03:15:25.676Z,0.00
2022-12-18T03:16:25.757Z,0.00
2022-12-18T03:17:25.674Z,0.00
2022-12-18T03:18:25.778Z,0.00
2022-12-18T03:19:25.654Z,0.00
2022-12-18T03:20:25.636Z,0.00
2022-12-18T03:21:25.609Z,0.00
2022-12-18T03:22:25.644Z,0.00
2022-12-18T03:23:26.429Z,0.00
2022-12-18T03:24:25.628Z,0.00
2022-12-18T03:25:25.557Z,0.00
2022-12-18T03:26:25.602Z,0.00
2022-12-18T03:27:25.528Z,0.00
2022-12-18T03:28:25.578Z,0.00
2022-12-18T03:29:25.536Z,0.00
2022-12-18T03:30:25.548Z,0.00
2022-12-18T03:31:25.604Z,0.00
2022-12-18T03:32:25.498Z,0.00
2022-12-18T03:33:25.460Z,0.00
2022-12-18T03:34:25.495Z,0.00
2022-12-18T03:35:25.428Z,0.00
2022-12-18T03:36:25.586Z,0.00
2022-12-18T03:37:25.434Z,0.00
2022-12-18T03:38:25.419Z,0.00
2022-12-18T03:39:25.382Z,0.00
2022-12-18T03:40:25.425Z,0.00
2022-12-18T03:41:25.388Z,0.00
2022-12-18T03:42:25.403Z,0.00
2022-12-18T03:43:25.366Z,0.00
2022-12-18T03:44:25.349Z,0.00
2022-12-18T03:45:25.311Z,0.00
2022-12-18T03:46:25.389Z,0.00
2022-12-18T03:47:25.281Z,0.00
2022-12-18T03:48:25.365Z,0.00
2022-12-18T03:49:25.286Z,0.00
2022-12-18T03:50:25.272Z,0.00
2022-12-18T03:51:25.265Z,0.00
2022-12-18T03:52:25.251Z,0.00
2022-12-18T03:53:25.219Z,0.00
2022-12-18T03:54:25.368Z,0.00
2022-12-18T03:55:25.183Z,0.00
2022-12-18T03:56:25.228Z,0.00
2022-12-18T03:57:25.187Z,0.00
2022-12-18T03:58:25.180Z,0.00
2022-12-18T03:59:25.165Z,0.00
2022-12-18T04:00:25.192Z,0.00
2022-12-18T04:01:25.196Z,0.00
2022-12-18T04:02:25.326Z,0.00
2022-12-18T04:03:26.636Z,0.00
2022-12-18T04:04:25.129Z,0.00
2022-12-18T04:05:25.088Z,0.00
2022-12-18T04:06:25.183Z,0.00
2022-12-18T04:07:25.059Z,0.00
2022-12-18T04:08:25.052Z,0.00
2022-12-18T04:09:25.013Z,0.00
2022-12-18T04:10:25.058Z,0.00
2022-12-18T04:11:25.019Z,0.00
2022-12-18T04:12:25.046Z,0.00
2022-12-18T04:13:24.963Z,0.00
2022-12-18T04:14:25.009Z,0.00
2022-12-18T04:15:24.972Z,0.00
2022-12-18T04:16:24.980Z,0.00
2022-12-18T04:17:24.964Z,0.00
2022-12-18T04:18:24.964Z,0.00
2022-12-18T04:19:24.923Z,0.00
2022-12-18T04:20:24.904Z,0.00
2022-12-18T04:21:24.864Z,0.00
2022-12-18T04:22:24.909Z,0.00
2022-12-18T04:23:24.846Z,0.00
2022-12-18T04:24:24.911Z,0.00
2022-12-18T04:25:24.842Z,0.00
2022-12-18T04:26:24.835Z,0.00
2022-12-18T04:27:25.504Z,0.00
2022-12-18T04:28:24.831Z,0.00
2022-12-18T04:29:24.791Z,0.00
2022-12-18T04:30:24.895Z,0.00
2022-12-18T04:31:24.785Z,0.00
2022-12-18T04:32:24.755Z,0.00
2022-12-18T04:33:24.716Z,0.00
2022-12-18T04:34:24.761Z,0.00
2022-12-18T04:35:24.696Z,0.00
2022-12-18T04:36:24.772Z,0.00
2022-12-18T04:37:24.695Z,0.00
2022-12-18T04:38:24.688Z,0.00
2022-12-18T04:39:24.674Z,0.00
2022-12-18T04:40:24.656Z,0.00
2022-12-18T04:41:24.617Z,0.00
2022-12-18T04:42:24.696Z,0.00
2022-12-18T04:43:24.695Z,0.00
2022-12-18T04:44:24.609Z,0.00
2022-12-18T04:45:25.264Z,0.00
2022-12-18T04:46:24.664Z,0.00
2022-12-18T04:47:24.547Z,0.00
2022-12-18T04:48:24.695Z,0.00
2022-12-18T04:49:24.544Z,0.00
2022-12-18T04:50:24.539Z,0.00
2022-12-18T04:51:26.584Z,0.00
2022-12-18T04:52:24.511Z,0.00
2022-12-18T04:53:24.470Z,0.00
2022-12-18T04:54:24.555Z,0.00
2022-12-18T04:55:24.448Z,0.00
2022-12-18T04:56:25.167Z,0.00
2022-12-18T04:57:24.446Z,0.00
2022-12-18T04:58:24.439Z,0.00
2022-12-18T04:59:24.435Z,0.00
2022-12-18T05:00:24.446Z,0.00
2022-12-18T05:01:28.158Z,0.00
2022-12-18T05:02:25.516Z,0.00
2022-12-18T05:03:24.509Z,0.00
2022-12-18T05:04:24.339Z,0.00
2022-12-18T05:05:24.351Z,0.00
2022-12-18T05:06:24.376Z,0.00
2022-12-18T05:07:24.332Z,0.00
2022-12-18T05:08:24.315Z,0.00
2022-12-18T05:09:24.328Z,0.00
2022-12-18T05:10:24.260Z,0.00
2022-12-18T05:11:24.310Z,0.00
2022-12-18T05:12:24.261Z,0.00
2022-12-18T05:13:24.251Z,0.00
2022-12-18T05:14:24.239Z,0.00
2022-12-18T05:15:24.258Z,0.00
2022-12-18T05:16:24.238Z,0.00
2022-12-18T05:17:24.201Z,0.00
2022-12-18T05:18:24.226Z,0.00
2022-12-18T05:19:24.354Z,0.00
2022-12-18T05:20:24.324Z,0.00
2022-12-18T05:21:25.042Z,0.00
2022-12-18T05:22:24.339Z,0.00
2022-12-18T05:23:24.235Z,0.00
2022-12-18T05:24:24.262Z,0.00
2022-12-18T05:25:24.164Z,0.00
2022-12-18T05:26:24.105Z,0.00
2022-12-18T05:27:24.115Z,0.00
2022-12-18T05:28:24.085Z,0.00
2022-12-18T05:29:24.092Z,0.00
2022-12-18T05:30:24.134Z,0.00
2022-12-18T05:31:24.069Z,0.00
2022-12-18T05:32:24.041Z,0.00
2022-12-18T05:33:24.041Z,0.00
2022-12-18T05:34:24.009Z,0.00
2022-12-18T05:35:24.729Z,0.00
2022-12-18T05:36:23.996Z,0.00
2022-12-18T05:37:23.986Z,0.00
2022-12-18T05:38:23.953Z,0.00
2022-12-18T05:39:23.937Z,0.00
2022-12-18T05:40:23.942Z,0.00
2022-12-18T05:41:23.943Z,0.00
2022-12-18T05:42:23.997Z,0.00
2022-12-18T05:43:23.924Z,0.00
2022-12-18T05:44:23.857Z,0.00
2022-12-18T05:45:23.882Z,0.00
2022-12-18T05:46:23.940Z,0.00
2022-12-18T05:47:23.883Z,0.00
2022-12-18T05:48:23.916Z,0.00
2022-12-18T05:49:23.835Z,0.00
2022-12-18T05:50:23.805Z,0.00
2022-12-18T05:51:23.810Z,0.00
2022-12-18T05:52:23.795Z,0.00
2022-12-18T05:53:23.813Z,0.00
2022-12-18T05:54:23.854Z,0.00
2022-12-18T05:55:23.785Z,0.00
2022-12-18T05:56:23.709Z,0.00
2022-12-18T05:57:23.727Z,0.00
2022-12-18T05:58:23.715Z,0.00
2022-12-18T05:59:23.721Z,0.00
2022-12-18T06:00:23.735Z,0.00
2022-12-18T06:01:23.742Z,0.00
2022-12-18T06:02:23.738Z,0.00
2022-12-18T06:03:25.138Z,0.00
2022-12-18T06:04:23.630Z,0.00
2022-12-18T06:05:23.625Z,0.00
2022-12-18T06:06:23.725Z,0.00
2022-12-18T06:07:23.600Z,0.00
2022-12-18T06:08:23.588Z,0.00
2022-12-18T06:09:23.613Z,0.00
2022-12-18T06:10:23.530Z,0.00
2022-12-18T06:11:23.576Z,0.00
2022-12-18T06:12:23.540Z,0.00
2022-12-18T06:13:23.522Z,0.00
2022-12-18T06:14:23.526Z,0.00
2022-12-18T06:15:23.512Z,0.00
2022-12-18T06:16:23.527Z,4.00
2022-12-18T06:17:23.508Z,4.00
2022-12-18T06:18:23.462Z,0.00
2022-12-18T06:19:23.452Z,0.00
2022-12-18T06:20:23.437Z,0.00
2022-12-18T06:21:23.468Z,0.00
2022-12-18T06:22:23.382Z,0.00
2022-12-18T06:23:23.460Z,0.00
2022-12-18T06:24:23.493Z,0.00
2022-12-18T06:25:23.401Z,0.00
2022-12-18T06:26:27.755Z,0.00
2022-12-18T06:27:24.352Z,0.00
2022-12-18T06:28:23.349Z,0.00
2022-12-18T06:29:23.358Z,0.00
2022-12-18T06:30:23.632Z,0.00
2022-12-18T06:31:23.452Z,0.00
2022-12-18T06:32:23.272Z,0.00
2022-12-18T06:33:23.303Z,0.00
2022-12-18T06:34:23.260Z,0.00
2022-12-18T06:35:23.310Z,0.00
2022-12-18T06:36:23.290Z,0.00
2022-12-18T06:37:23.224Z,0.00
2022-12-18T06:38:23.210Z,0.00
2022-12-18T06:39:23.555Z,0.00
2022-12-18T06:40:23.210Z,0.00
2022-12-18T06:41:23.212Z,1.00
2022-12-18T06:42:23.185Z,1.00
2022-12-18T06:43:23.184Z,1.00
2022-12-18T06:44:23.115Z,0.00
2022-12-18T06:45:23.134Z,0.00
2022-12-18T06:46:23.130Z,0.00
2022-12-18T06:47:23.126Z,0.00
2022-12-18T06:48:23.131Z,0.00
2022-12-18T06:49:27.338Z,2.00
2022-12-18T06:50:24.055Z,2.00
2022-12-18T06:51:23.054Z,2.00
2022-12-18T06:52:23.045Z,0.00
2022-12-18T06:53:23.071Z,0.00
2022-12-18T06:54:23.295Z,0.00
2022-12-18T06:55:23.032Z,4.00
2022-12-18T06:56:22.988Z,2.00
2022-12-18T06:57:22.986Z,2.00
2022-12-18T06:58:22.972Z,1.00
2022-12-18T06:59:22.956Z,1.00
2022-12-18T07:00:23.052Z,13.00
2022-12-18T07:01:23.077Z,13.00
2022-12-18T07:02:23.020Z,7.00
2022-12-18T07:03:22.934Z,10.00
2022-12-18T07:04:22.868Z,8.00
2022-12-18T07:05:22.883Z,8.00
2022-12-18T07:06:22.984Z,23.00
2022-12-18T07:07:22.857Z,13.00
2022-12-18T07:08:22.844Z,18.00
2022-12-18T07:09:22.863Z,20.00
2022-12-18T07:10:22.787Z,21.00
2022-12-18T07:11:22.842Z,21.00
2022-12-18T07:12:22.788Z,28.00
2022-12-18T07:13:22.777Z,38.00
2022-12-18T07:14:22.766Z,28.00
2022-12-18T07:15:22.758Z,43.00
2022-12-18T07:16:25.643Z,61.00
2022-12-18T07:17:22.755Z,54.00
2022-12-18T07:18:22.727Z,61.00
2022-12-18T07:19:22.885Z,73.00
2022-12-18T07:20:23.539Z,76.00
2022-12-18T07:21:22.680Z,90.00
2022-12-18T07:22:22.668Z,98.00
2022-12-18T07:23:22.684Z,124.00
2022-12-18T07:24:22.651Z,132.00
2022-12-18T07:25:22.637Z,152.00
2022-12-18T07:26:22.618Z,160.00
2022-12-18T07:27:22.609Z,188.00
2022-12-18T07:28:22.595Z,206.00
2022-12-18T07:29:22.606Z,221.00
2022-12-18T07:30:22.561Z,245.00
2022-12-18T07:31:22.656Z,276.00
2022-12-18T07:32:22.527Z,286.00
2022-12-18T07:33:22.539Z,315.00
2022-12-18T07:34:22.525Z,338.00
2022-12-18T07:35:25.160Z,365.00
2022-12-18T07:36:22.616Z,393.00
2022-12-18T07:37:22.519Z,431.00
2022-12-18T07:38:22.451Z,452.00
2022-12-18T07:39:22.463Z,477.00
2022-12-18T07:40:22.449Z,505.00
2022-12-18T07:41:22.466Z,534.00
2022-12-18T07:42:22.433Z,577.00
2022-12-18T07:43:22.439Z,605.00
2022-12-18T07:44:22.376Z,633.00
2022-12-18T07:45:22.396Z,674.00
2022-12-18T07:46:22.446Z,711.00
2022-12-18T07:47:22.362Z,743.00
2022-12-18T07:48:22.371Z,777.00
2022-12-18T07:49:22.368Z,831.00
2022-12-18T07:50:22.293Z,862.00
2022-12-18T07:51:22.340Z,888.00
2022-12-18T07:52:25.994Z,932.00
2022-12-18T07:53:22.295Z,973.00
2022-12-18T07:54:22.389Z,997.00
2022-12-18T07:55:22.289Z,1046.00
2022-12-18T07:56:30.935Z,1093.00
2022-12-18T07:57:48.929Z,1165.00
2022-12-18T07:58:23.229Z,1226.00
2022-12-18T07:59:22.216Z,1276.00
2022-12-18T08:00:22.241Z,1317.00
2022-12-18T08:01:22.321Z,1357.00
2022-12-18T08:02:22.258Z,1430.00
2022-12-18T08:03:22.230Z,1483.00
2022-12-18T08:04:22.125Z,1555.00
2022-12-18T08:05:22.149Z,1607.00
2022-12-18T08:06:23.400Z,1642.00
2022-12-18T08:07:22.122Z,1680.00
2022-12-18T08:08:22.110Z,1721.00
2022-12-18T08:09:22.120Z,1764.00
2022-12-18T08:10:22.055Z,1808.00
2022-12-18T08:11:22.100Z,1839.00
2022-12-18T08:12:22.136Z,1864.00
2022-12-18T08:13:22.046Z,1880.00
2022-12-18T08:14:22.031Z,1914.00
2022-12-18T08:15:22.016Z,1934.00
2022-12-18T08:16:22.128Z,1960.00
2022-12-18T08:17:22.026Z,1998.00
2022-12-18T08:18:22.066Z,2020.00
2022-12-18T08:19:21.993Z,2047.00
2022-12-18T08:20:21.934Z,2074.00
2022-12-18T08:21:22.102Z,2079.00
2022-12-18T08:22:21.933Z,2086.00
2022-12-18T08:23:21.917Z,2082.00
2022-12-18T08:24:22.014Z,2084.00
2022-12-18T08:25:21.924Z,2081.00
2022-12-18T08:26:22.567Z,2102.00
2022-12-18T08:27:29.442Z,2133.00
2022-12-18T08:28:22.862Z,2165.00
2022-12-18T08:29:21.874Z,2203.00
2022-12-18T08:30:21.918Z,2241.00
2022-12-18T08:31:21.896Z,2270.00
2022-12-18T08:32:21.803Z,2326.00
2022-12-18T08:33:22.756Z,2377.00
2022-12-18T08:34:21.783Z,2406.00
2022-12-18T08:35:21.771Z,2460.00
2022-12-18T08:36:21.874Z,2483.00
2022-12-18T08:37:21.785Z,2528.00
2022-12-18T08:38:21.709Z,2561.00
2022-12-18T08:39:21.745Z,2592.00
2022-12-18T08:40:21.680Z,2626.00
2022-12-18T08:41:21.700Z,2720.00
2022-12-18T08:42:21.804Z,2833.00
2022-12-18T08:43:21.703Z,2964.00
2022-12-18T08:44:21.636Z,3072.00
2022-12-18T08:45:21.650Z,3163.00
2022-12-18T08:46:21.698Z,3243.00
2022-12-18T08:47:21.628Z,3295.00
2022-12-18T08:48:22.386Z,3380.00
2022-12-18T08:49:21.628Z,3509.00
2022-12-18T08:50:21.560Z,3598.00
2022-12-18T08:51:21.600Z,3659.00
2022-12-18T08:52:21.538Z,3686.00
2022-12-18T08:53:21.550Z,3734.00
2022-12-18T08:54:21.567Z,3800.00
2022-12-18T08:55:21.520Z,3853.00
2022-12-18T08:56:21.508Z,3933.00
2022-12-18T08:57:21.527Z,3979.00
2022-12-18T08:58:21.460Z,4054.00
2022-12-18T08:59:21.472Z,4103.00
2022-12-18T09:00:21.577Z,4143.00
2022-12-18T09:01:21.525Z,4176.00
2022-12-18T09:02:21.663Z,4206.00
2022-12-18T09:03:21.474Z,4258.00
2022-12-18T09:04:21.382Z,4282.00
2022-12-18T09:05:21.401Z,4280.00
2022-12-18T09:06:21.430Z,4257.00
2022-12-18T09:07:21.372Z,4200.00
2022-12-18T09:08:21.359Z,4135.00
2022-12-18T09:09:21.377Z,4049.00
2022-12-18T09:10:21.302Z,3966.00
2022-12-18T09:11:21.349Z,3967.00
2022-12-18T09:12:21.318Z,3968.00
2022-12-18T09:13:21.304Z,4020.00
2022-12-18T09:14:21.280Z,4024.00
2022-12-18T09:15:21.269Z,3999.00
2022-12-18T09:16:21.299Z,3966.00
2022-12-18T09:17:21.383Z,3932.00
2022-12-18T09:18:21.290Z,3907.00
2022-12-18T09:19:21.223Z,3922.00
2022-12-18T09:20:21.261Z,3904.00
2022-12-18T09:21:21.191Z,3923.00
2022-12-18T09:22:22.152Z,3964.00
2022-12-18T09:23:21.178Z,3963.00
2022-12-18T09:24:21.184Z,3896.00
2022-12-18T09:25:21.114Z,3890.00
2022-12-18T09:26:21.161Z,3850.00
2022-12-18T09:27:21.085Z,3834.00
2022-12-18T09:28:21.132Z,3814.00
2022-12-18T09:29:21.112Z,3819.00
2022-12-18T09:30:21.108Z,3824.00
2022-12-18T09:31:21.062Z,3843.00
2022-12-18T09:32:22.657Z,3904.00
2022-12-18T09:33:21.064Z,3970.00
2022-12-18T09:34:21.026Z,4042.00
2022-12-18T09:35:21.012Z,4110.00
2022-12-18T09:36:21.051Z,4203.00
2022-12-18T09:37:20.966Z,4282.00
2022-12-18T09:38:21.013Z,4315.00
2022-12-18T09:39:22.901Z,4326.00
2022-12-18T09:40:20.984Z,4319.00
2022-12-18T09:41:20.944Z,4345.00
2022-12-18T09:42:21.046Z,4400.00
2022-12-18T09:43:20.935Z,4472.00
2022-12-18T09:44:20.936Z,4534.00
2022-12-18T09:45:20.858Z,4583.00
2022-12-18T09:46:20.936Z,4601.00
2022-12-18T09:47:20.866Z,4612.00
2022-12-18T09:48:20.887Z,4629.00
2022-12-18T09:49:20.809Z,4664.00
2022-12-18T09:50:20.854Z,4661.00
2022-12-18T09:51:20.787Z,4732.00
2022-12-18T09:52:20.826Z,4816.00
2022-12-18T09:53:20.787Z,4835.00
2022-12-18T09:54:20.879Z,4842.00
2022-12-18T09:55:20.764Z,4869.00
2022-12-18T09:56:20.749Z,4909.00
2022-12-18T09:57:20.709Z,4935.00
2022-12-18T09:58:20.754Z,4962.00
2022-12-18T09:59:20.679Z,5016.00
2022-12-18T10:00:20.763Z,5037.00
2022-12-18T10:01:20.761Z,5050.00
2022-12-18T10:02:20.752Z,5073.00
2022-12-18T10:03:21.340Z,5097.00
2022-12-18T10:04:20.764Z,5118.00
2022-12-18T10:05:20.627Z,5154.00
2022-12-18T10:06:20.650Z,5201.00
2022-12-18T10:07:20.606Z,5227.00
2022-12-18T10:08:20.602Z,5247.00
2022-12-18T10:09:20.581Z,5305.00
2022-12-18T10:10:20.665Z,5348.00
2022-12-18T10:11:20.552Z,5416.00
2022-12-18T10:12:20.688Z,5493.00
2022-12-18T10:13:20.529Z,5590.00
2022-12-18T10:14:24.613Z,5672.00
2022-12-18T10:15:20.509Z,5744.00
2022-12-18T10:16:20.581Z,5809.00
2022-12-18T10:17:20.454Z,5910.00
2022-12-18T10:18:22.183Z,6013.00
2022-12-18T10:19:20.424Z,6139.00
2022-12-18T10:20:20.561Z,6208.00
2022-12-18T10:21:20.430Z,6273.00
2022-12-18T10:22:20.414Z,6349.00
2022-12-18T10:23:20.400Z,6361.00
2022-12-18T10:24:20.444Z,6335.00
2022-12-18T10:25:20.353Z,6334.00
2022-12-18T10:26:20.391Z,6257.00
2022-12-18T10:27:20.325Z,6265.00
2022-12-18T10:28:20.370Z,6276.00
2022-12-18T10:29:20.321Z,6286.00
2022-12-18T10:30:20.470Z,6263.00
2022-12-18T10:31:20.326Z,6258.00
2022-12-18T10:32:20.304Z,6252.00
2022-12-18T10:33:20.254Z,6259.00
2022-12-18T10:34:20.281Z,6244.00
2022-12-18T10:35:20.250Z,6188.00
2022-12-18T10:36:20.284Z,6113.00
2022-12-18T10:37:20.216Z,6067.00
2022-12-18T10:38:20.234Z,6096.00
2022-12-18T10:39:20.165Z,6147.00
2022-12-18T10:40:22.767Z,6233.00
2022-12-18T10:41:21.677Z,6324.00
2022-12-18T10:42:20.186Z,6425.00
2022-12-18T10:43:20.146Z,6486.00
2022-12-18T10:44:20.130Z,6517.00
2022-12-18T10:45:20.086Z,6500.00
2022-12-18T10:46:20.188Z,6394.00
2022-12-18T10:47:20.067Z,6315.00
2022-12-18T10:48:20.143Z,6185.00
2022-12-18T10:49:20.063Z,5994.00
2022-12-18T10:50:20.068Z,5723.00
2022-12-18T10:51:20.008Z,5401.00
2022-12-18T10:52:20.052Z,5094.00
2022-12-18T10:53:20.013Z,4790.00
2022-12-18T10:54:20.027Z,4518.00
2022-12-18T10:55:19.996Z,4258.00
2022-12-18T10:56:19.967Z,4068.00
2022-12-18T10:57:19.976Z,3931.00
2022-12-18T10:58:24.971Z,3888.00
2022-12-18T10:59:20.948Z,3865.00
2022-12-18T11:00:19.945Z,3899.00
2022-12-18T11:01:19.985Z,3927.00
2022-12-18T11:02:19.981Z,3939.00
2022-12-18T11:03:19.928Z,3931.00
2022-12-18T11:04:19.871Z,3940.00
2022-12-18T11:05:19.889Z,4019.00
2022-12-18T11:06:19.868Z,4069.00
2022-12-18T11:07:19.827Z,4055.00
2022-12-18T11:08:19.820Z,4125.00
2022-12-18T11:09:19.772Z,4178.00
2022-12-18T11:10:19.819Z,4241.00
2022-12-18T11:11:28.524Z,4212.00
2022-12-18T11:12:19.809Z,4195.00
2022-12-18T11:13:19.833Z,4285.00
2022-12-18T11:14:19.748Z,4353.00
2022-12-18T11:15:19.718Z,4471.00
2022-12-18T11:16:19.892Z,4495.00
2022-12-18T11:18:19.540Z,0.00
2022-12-18T11:19:19.561Z,4471.00
2022-12-18T11:20:19.567Z,4464.00
2022-12-18T11:21:19.531Z,4503.00
2022-12-18T11:22:19.518Z,4552.00
2022-12-18T11:23:19.638Z,4598.00
2022-12-18T11:24:19.461Z,4649.00
2022-12-18T11:25:35.891Z,4681.00
2022-12-18T11:26:20.443Z,4722.00
2022-12-18T11:27:23.527Z,4745.00
2022-12-18T11:28:51.632Z,4788.00
2022-12-18T11:29:19.634Z,4832.00
2022-12-18T11:30:22.099Z,4895.00
2022-12-18T11:31:20.411Z,4969.00
2022-12-18T11:32:20.005Z,5062.00
2022-12-18T11:33:19.537Z,5165.00
2022-12-18T11:34:29.034Z,5242.00
2022-12-18T11:35:20.391Z,5322.00
2022-12-18T11:36:20.245Z,5374.00
2022-12-18T11:37:20.175Z,5389.00
2022-12-18T11:38:19.365Z,5386.00
2022-12-18T11:39:19.664Z,5374.00
2022-12-18T11:40:23.527Z,5360.00
2022-12-18T11:41:19.592Z,5337.00
2022-12-18T11:42:19.323Z,5314.00
2022-12-18T11:43:23.738Z,5298.00
2022-12-18T11:44:19.596Z,5325.00
2022-12-18T11:45:20.076Z,5346.00
2022-12-18T11:46:19.936Z,5363.00
2022-12-18T11:47:19.226Z,5399.00
2022-12-18T11:48:19.219Z,5467.00
2022-12-18T11:49:20.006Z,5517.00
2022-12-18T11:50:19.555Z,5557.00
2022-12-18T11:51:19.201Z,5565.00
2022-12-18T11:52:19.197Z,5541.00
2022-12-18T11:53:19.092Z,5527.00
2022-12-18T11:54:19.110Z,5489.00
2022-12-18T11:55:19.097Z,5451.00
2022-12-18T11:56:19.081Z,5390.00
2022-12-18T11:57:19.070Z,5373.00
2022-12-18T11:58:19.110Z,5354.00
2022-12-18T11:59:19.023Z,5351.00
2022-12-18T12:00:19.057Z,5354.00
2022-12-18T12:01:19.018Z,5366.00
2022-12-18T12:02:19.103Z,5397.00
2022-12-18T12:03:19.042Z,5403.00
2022-12-18T12:04:19.053Z,5415.00
2022-12-18T12:05:18.960Z,5454.00
2022-12-18T12:06:18.952Z,5448.00
2022-12-18T12:07:18.938Z,5454.00
2022-12-18T12:08:18.935Z,5477.00
2022-12-18T12:09:18.910Z,5487.00
2022-12-18T12:10:18.939Z,5502.00
2022-12-18T12:11:18.886Z,5518.00
2022-12-18T12:12:18.900Z,5519.00
2022-12-18T12:13:18.835Z,5530.00
2022-12-18T12:14:18.844Z,5489.00
2022-12-18T12:15:18.842Z,5472.00
2022-12-18T12:16:18.923Z,5406.00
2022-12-18T12:17:18.810Z,5368.00
2022-12-18T12:18:18.823Z,5326.00
2022-12-18T12:19:18.756Z,5279.00
2022-12-18T12:20:18.775Z,5264.00
2022-12-18T12:21:18.750Z,5197.00
2022-12-18T12:22:18.885Z,5142.00
2022-12-18T12:23:20.015Z,5108.00
2022-12-18T12:24:18.742Z,5060.00
2022-12-18T12:25:18.675Z,5024.00
2022-12-18T12:26:18.696Z,5006.00
2022-12-18T12:27:18.684Z,4996.00
2022-12-18T12:28:18.707Z,4968.00
2022-12-18T12:29:21.313Z,4919.00
2022-12-18T12:30:18.662Z,4865.00
2022-12-18T12:31:18.646Z,4826.00
2022-12-18T12:32:18.644Z,4767.00
2022-12-18T12:33:18.577Z,4708.00
2022-12-18T12:34:18.617Z,4636.00
2022-12-18T12:35:18.573Z,4555.00
2022-12-18T12:36:18.594Z,4471.00
2022-12-18T12:37:18.519Z,4348.00
2022-12-18T12:38:18.528Z,4243.00
2022-12-18T12:39:18.523Z,4162.00
2022-12-18T12:40:49.070Z,4078.00
2022-12-18T12:41:19.494Z,4008.00
2022-12-18T12:42:18.504Z,3963.00
2022-12-18T12:43:18.446Z,3933.00
2022-12-18T12:44:18.494Z,3913.00
2022-12-18T12:45:18.468Z,3918.00
2022-12-18T12:46:18.504Z,3897.00
2022-12-18T12:47:18.425Z,3880.00